Time;durP1;ratioP1;P1;durP2;ratioP2;P2;SDS_P1;SDS_P2;PMS_P1;PMS_P2;Temp;Humidity;BMP_temperature;BMP_pressure;BME280_temperature;BME280_humidity;BME280_pressure;Samples;Min_cycle;Max_cycle;Signal;HPM_P1;HPM_P2
2021/04/24 00:00:34;;;;;;;8.30;6.93;;;;;;;1.91;84.18;98814.75;5061827;28;20243;-72
2021/04/24 00:03:02;;;;;;;7.97;7.17;;;;;;;1.85;84.34;98813.34;5057528;28;20227;-72
2021/04/24 00:05:31;;;;;;;7.70;7.00;;;;;;;1.99;83.92;98814.31;5061820;28;20215;-72
2021/04/24 00:08:01;;;;;;;9.07;8.07;;;;;;;1.88;84.85;98812.31;5057197;28;20207;-72
2021/04/24 00:10:29;;;;;;;8.97;8.03;;;;;;;1.92;83.51;98813.81;5062718;28;20640;-72
2021/04/24 00:12:56;;;;;;;9.10;7.27;;;;;;;1.88;84.08;98810.53;5057972;28;20199;-72
2021/04/24 00:15:23;;;;;;;9.93;7.83;;;;;;;1.94;83.31;98814.59;5062036;28;20211;-72
2021/04/24 00:17:50;;;;;;;7.90;7.20;;;;;;;1.83;84.06;98812.56;5062515;28;20210;-72
2021/04/24 00:20:20;;;;;;;7.30;6.70;;;;;;;1.76;84.11;98810.44;5062390;28;20606;-72
2021/04/24 00:22:47;;;;;;;7.70;7.00;;;;;;;1.72;85.28;98807.13;5062638;28;20235;-72
2021/04/24 00:25:16;;;;;;;7.93;7.20;;;;;;;1.75;84.65;98803.53;5060671;28;20211;-71
2021/04/24 00:27:43;;;;;;;10.83;7.70;;;;;;;1.87;83.92;98810.63;5060205;28;20207;-72
2021/04/24 00:30:12;;;;;;;7.23;6.53;;;;;;;1.78;84.02;98812.00;5063475;28;20207;-72
2021/04/24 00:32:39;;;;;;;7.50;6.90;;;;;;;1.59;85.28;98804.38;5060923;28;20636;-71
2021/04/24 00:35:08;;;;;;;10.13;8.30;;;;;;;1.73;84.15;98799.22;5062555;28;20237;-72
2021/04/24 00:37:35;;;;;;;8.07;7.37;;;;;;;1.59;85.39;98794.78;5063142;28;20206;-72
2021/04/24 00:40:03;;;;;;;7.90;6.83;;;;;;;1.69;84.08;98794.25;5056313;28;20227;-72
2021/04/24 00:42:31;;;;;;;7.97;6.33;;;;;;;1.68;84.48;98797.78;5062477;28;20314;-72
2021/04/24 00:44:58;;;;;;;7.73;6.93;;;;;;;1.61;84.12;98793.84;5061051;28;20217;-72
2021/04/24 00:47:27;;;;;;;8.53;7.20;;;;;;;1.33;85.73;98784.94;5061181;28;20207;-72
2021/04/24 00:49:54;;;;;;;9.80;7.37;;;;;;;1.36;86.33;98787.38;5060790;28;20225;-71
2021/04/24 00:52:21;;;;;;;13.63;7.53;;;;;;;1.23;86.60;98789.84;5062919;28;20326;-71
2021/04/24 00:54:48;;;;;;;8.10;6.93;;;;;;;1.23;86.99;98795.91;5062306;28;20285;-72
2021/04/24 00:57:16;;;;;;;9.77;7.57;;;;;;;1.13;88.16;98787.75;5061831;28;20211;-72
2021/04/24 00:59:44;;;;;;;13.17;7.93;;;;;;;1.15;88.75;98788.50;5061961;28;20675;-72
2021/04/24 01:02:11;;;;;;;8.27;6.93;;;;;;;1.22;88.10;98783.78;5061610;28;20222;-72
2021/04/24 01:04:38;;;;;;;8.97;8.13;;;;;;;1.01;88.91;98783.22;5061252;28;20724;-71
2021/04/24 01:07:06;;;;;;;8.03;7.23;;;;;;;0.92;89.73;98783.69;5056561;28;20203;-72
2021/04/24 01:09:33;;;;;;;8.37;7.53;;;;;;;0.85;89.45;98784.03;5059246;28;20745;-72
2021/04/24 01:12:00;;;;;;;8.17;7.37;;;;;;;0.81;90.38;98776.47;5060921;28;20623;-72
2021/04/24 01:14:27;;;;;;;10.53;7.87;;;;;;;0.86;90.73;98780.47;5062573;28;20206;-72
2021/04/24 01:16:55;;;;;;;11.10;7.80;;;;;;;0.89;90.11;98786.47;5061321;28;20209;-72
2021/04/24 01:19:23;;;;;;;9.93;8.00;;;;;;;0.89;90.21;98781.25;5057754;28;20346;-72
2021/04/24 01:21:52;;;;;;;10.67;8.03;;;;;;;0.80;90.94;98780.81;5059243;28;20640;-72
2021/04/24 01:24:20;;;;;;;8.57;7.00;;;;;;;0.69;92.01;98781.38;5058469;28;20247;-72
2021/04/24 01:26:48;;;;;;;7.87;7.03;;;;;;;0.54;92.82;98790.88;5060810;28;20234;-72
2021/04/24 01:29:15;;;;;;;8.00;7.20;;;;;;;0.67;91.78;98790.25;5055402;28;20489;-72
2021/04/24 01:31:42;;;;;;;8.67;7.57;;;;;;;0.50;93.14;98788.53;5059031;28;20706;-72
2021/04/24 01:34:09;;;;;;;8.83;7.27;;;;;;;0.47;93.14;98783.47;5060454;28;20618;-72
2021/04/24 01:36:36;;;;;;;8.73;7.50;;;;;;;0.48;92.72;98785.16;5054267;28;20287;-72
2021/04/24 01:39:05;;;;;;;10.90;7.80;;;;;;;0.49;92.52;98782.44;5056867;28;20234;-72
2021/04/24 01:41:33;;;;;;;7.73;6.97;;;;;;;0.66;91.79;98778.94;5058379;28;20722;-72
2021/04/24 01:44:00;;;;;;;8.30;7.50;;;;;;;0.43;91.92;98782.78;5056395;28;20286;-72
2021/04/24 01:46:27;;;;;;;9.43;8.13;;;;;;;0.33;92.75;98789.41;5061675;28;20207;-72
2021/04/24 01:48:54;;;;;;;8.50;7.67;;;;;;;0.43;93.01;98786.25;5056674;28;20218;-72
2021/04/24 01:51:21;;;;;;;8.30;6.63;;;;;;;0.45;93.02;98783.53;5062676;28;20261;-72
2021/04/24 01:53:50;;;;;;;8.27;7.00;;;;;;;0.45;93.08;98780.09;5061066;28;20289;-72
2021/04/24 01:56:42;;;;;;;7.63;6.80;;;;;;;0.27;94.33;98780.97;5058138;28;20290;-72
2021/04/24 01:59:09;;;;;;;8.47;7.23;;;;;;;0.38;93.53;98776.97;5057024;28;20210;-72
2021/04/24 02:01:36;;;;;;;7.97;7.17;;;;;;;0.42;92.78;98770.66;5060946;28;20234;-72
2021/04/24 02:04:03;;;;;;;9.23;7.47;;;;;;;0.42;92.35;98763.69;5057847;28;20617;-72
2021/04/24 02:06:30;;;;;;;7.90;6.97;;;;;;;0.34;92.06;98767.63;5059845;28;20199;-72
2021/04/24 02:08:58;;;;;;;12.53;8.43;;;;;;;0.36;92.30;98769.19;5056917;28;20261;-72
2021/04/24 02:11:25;;;;;;;8.23;7.47;;;;;;;0.23;92.74;98769.03;5059507;28;20743;-72
2021/04/24 02:13:53;;;;;;;8.90;7.93;;;;;;;0.24;92.58;98767.25;5057780;28;20213;-71
2021/04/24 02:16:21;;;;;;;10.10;8.70;;;;;;;0.18;93.51;98764.97;5062802;28;20597;-72
2021/04/24 02:18:48;;;;;;;9.57;8.17;;;;;;;0.04;94.79;98763.91;5061086;28;20207;-72
2021/04/24 02:21:15;;;;;;;11.53;7.60;;;;;;;-0.12;95.09;98757.78;5062334;28;20233;-72
2021/04/24 02:23:42;;;;;;;8.43;6.93;;;;;;;-0.17;94.35;98755.44;5060545;28;20206;-71
2021/04/24 02:26:10;;;;;;;7.77;7.00;;;;;;;-0.17;95.68;98755.44;5059886;28;20229;-72
2021/04/24 02:28:37;;;;;;;9.40;8.07;;;;;;;-0.30;95.42;98756.03;5060988;28;20572;-72
2021/04/24 02:31:05;;;;;;;7.23;6.63;;;;;;;-0.17;95.28;98761.47;5062054;28;20239;-72
2021/04/24 02:33:32;;;;;;;7.57;6.87;;;;;;;-0.02;94.01;98762.47;5064414;28;20563;-72
2021/04/24 02:36:00;;;;;;;7.93;7.23;;;;;;;-0.24;94.87;98754.88;5064587;28;20644;-72
2021/04/24 02:38:30;;;;;;;10.67;7.47;;;;;;;-0.14;95.41;98760.47;5061864;28;20509;-72
2021/04/24 02:40:59;;;;;;;9.10;8.23;;;;;;;-0.20;96.19;98750.34;5065265;28;20230;-71
2021/04/24 02:43:27;;;;;;;9.90;7.73;;;;;;;-0.07;95.18;98755.78;5062541;28;20219;-72
2021/04/24 02:45:54;;;;;;;10.80;7.27;;;;;;;-0.28;95.76;98744.69;5063922;28;20214;-72
2021/04/24 02:48:22;;;;;;;8.50;7.70;;;;;;;-0.39;96.65;98740.84;5065248;28;20598;-72
2021/04/24 02:50:49;;;;;;;9.53;7.97;;;;;;;-0.46;96.55;98744.69;5062944;28;20230;-72
2021/04/24 02:53:17;;;;;;;12.03;8.87;;;;;;;-0.47;97.14;98740.41;5058767;28;20417;-72
2021/04/24 02:55:44;;;;;;;9.90;7.83;;;;;;;-0.54;98.43;98741.63;5063964;28;20214;-71
2021/04/24 02:58:12;;;;;;;9.33;7.10;;;;;;;-0.60;98.46;98734.94;5063493;28;20209;-72
2021/04/24 03:00:39;;;;;;;9.43;7.63;;;;;;;-0.62;98.60;98742.81;5062354;28;20209;-72
2021/04/24 03:03:07;;;;;;;11.17;7.57;;;;;;;-0.65;97.61;98737.75;5061903;28;20249;-72
2021/04/24 03:05:35;;;;;;;7.97;7.13;;;;;;;-0.48;96.64;98739.53;5061792;28;20229;-72
2021/04/24 03:08:03;;;;;;;9.20;7.30;;;;;;;-0.53;96.23;98745.91;5061396;28;20669;-72
2021/04/24 03:10:31;;;;;;;10.50;6.57;;;;;;;-0.57;97.39;98747.81;5064585;28;20207;-72
2021/04/24 03:12:59;;;;;;;8.83;7.93;;;;;;;-0.62;97.43;98742.81;5060955;28;20207;-72
2021/04/24 03:15:26;;;;;;;11.37;7.73;;;;;;;-0.63;97.76;98748.13;5064404;28;20203;-72
2021/04/24 03:17:53;;;;;;;11.17;7.00;;;;;;;-0.70;96.97;98742.34;5061804;28;20717;-72
2021/04/24 03:20:21;;;;;;;7.87;7.07;;;;;;;-0.59;95.79;98739.25;5064045;28;20234;-72
2021/04/24 03:22:49;;;;;;;8.57;7.30;;;;;;;-0.70;96.37;98738.94;5057836;28;20473;-71
2021/04/24 03:25:17;;;;;;;8.90;8.10;;;;;;;-0.73;96.70;98739.91;5063578;28;20207;-71
2021/04/24 03:27:44;;;;;;;8.30;7.47;;;;;;;-0.77;97.43;98734.00;5066642;28;20202;-72
2021/04/24 03:30:13;;;;;;;9.80;7.20;;;;;;;-0.82;97.44;98746.38;5062685;28;20242;-72
2021/04/24 03:32:40;;;;;;;8.30;7.50;;;;;;;-0.83;98.29;98747.31;5058316;28;20222;-72
2021/04/24 03:35:09;;;;;;;8.97;7.73;;;;;;;-0.89;98.67;98745.00;5063747;28;20203;-72
2021/04/24 03:37:36;;;;;;;8.47;7.53;;;;;;;-0.95;99.59;98750.50;5062182;28;20207;-72
2021/04/24 03:40:06;;;;;;;7.77;7.17;;;;;;;-0.93;98.53;98751.28;5063603;28;20214;-72
2021/04/24 03:42:33;;;;;;;8.47;6.90;;;;;;;-1.04;98.90;98754.38;5062726;28;20932;-72
2021/04/24 03:45:00;;;;;;;7.73;6.97;;;;;;;-0.99;99.25;98755.00;5064339;28;20683;-73
2021/04/24 03:47:28;;;;;;;8.80;8.00;;;;;;;-0.99;98.91;98756.78;5063815;28;20676;-72
2021/04/24 03:49:55;;;;;;;7.43;6.73;;;;;;;-1.12;98.60;98754.75;5060211;28;20307;-73
2021/04/24 03:52:22;;;;;;;8.47;7.67;;;;;;;-1.08;99.71;98756.28;5063960;28;20230;-73
2021/04/24 03:54:49;;;;;;;9.27;7.33;;;;;;;-1.18;99.91;98758.47;5061234;28;20590;-72
2021/04/24 03:57:17;;;;;;;7.40;6.70;;;;;;;-1.09;100.00;98761.56;5060356;28;20207;-72
2021/04/24 03:59:44;;;;;;;9.33;7.50;;;;;;;-1.06;100.00;98769.22;5061180;28;20207;-73
2021/04/24 04:02:11;;;;;;;7.70;6.67;;;;;;;-1.04;100.00;98762.19;5057945;28;20231;-72
2021/04/24 04:04:40;;;;;;;7.47;6.83;;;;;;;-1.05;98.56;98768.28;5060469;28;20203;-67
2021/04/24 04:07:07;;;;;;;6.97;6.27;;;;;;;-1.02;98.11;98757.75;5062913;28;20215;-71
2021/04/24 04:09:34;;;;;;;8.90;7.17;;;;;;;-0.99;98.62;98759.38;5059889;28;20420;-68
2021/04/24 04:12:01;;;;;;;7.17;6.50;;;;;;;-1.09;99.49;98765.00;5060253;28;20227;-71
2021/04/24 04:14:29;;;;;;;7.67;6.90;;;;;;;-1.14;98.90;98766.97;5063353;28;20206;-73
2021/04/24 04:16:56;;;;;;;8.07;6.80;;;;;;;-1.13;100.00;98768.69;5062962;28;20206;-74
2021/04/24 04:19:23;;;;;;;7.13;6.43;;;;;;;-1.03;99.30;98771.66;5058572;28;20364;-74
2021/04/24 04:21:52;;;;;;;7.37;6.67;;;;;;;-0.91;98.38;98768.50;5058993;28;20255;-74
2021/04/24 04:24:19;;;;;;;7.43;6.60;;;;;;;-0.86;98.21;98759.63;5060052;28;20199;-74
2021/04/24 04:26:46;;;;;;;7.47;6.77;;;;;;;-0.82;97.32;98758.56;5057240;28;20207;-73
2021/04/24 04:29:13;;;;;;;6.87;6.23;;;;;;;-0.81;96.37;98758.47;5061450;28;20697;-74
2021/04/24 04:31:40;;;;;;;7.40;6.67;;;;;;;-0.76;97.20;98758.28;5059032;28;20245;-73
2021/04/24 04:34:08;;;;;;;8.07;6.73;;;;;;;-0.83;96.61;98760.31;5060980;28;20562;-74
2021/04/24 04:36:34;;;;;;;7.43;6.77;;;;;;;-0.95;97.09;98766.94;5061504;28;20211;-74
2021/04/24 04:39:03;;;;;;;6.93;6.23;;;;;;;-0.83;97.86;98760.31;5057547;28;20207;-74
2021/04/24 04:41:30;;;;;;;8.17;6.33;;;;;;;-0.82;97.08;98769.81;5059102;28;20222;-74
2021/04/24 04:43:57;;;;;;;8.00;7.20;;;;;;;-0.83;97.48;98762.09;5061529;28;20250;-74
2021/04/24 04:46:24;;;;;;;9.40;6.77;;;;;;;-0.80;99.16;98767.97;5059042;28;20485;-73
2021/04/24 04:48:59;;;;;;;7.47;6.77;;;;;;;-0.65;98.63;98768.19;5056937;28;20207;-74
2021/04/24 04:51:26;;;;;;;6.90;6.20;;;;;;;-0.61;97.76;98772.31;5058659;28;20222;-73
2021/04/24 04:53:53;;;;;;;7.17;6.47;;;;;;;-0.37;96.60;98772.06;5056248;28;20676;-74
2021/04/24 04:56:20;;;;;;;7.50;6.77;;;;;;;-0.25;95.47;98770.56;5062339;28;20651;-73
2021/04/24 04:58:47;;;;;;;8.73;7.77;;;;;;;-0.06;94.19;98768.75;5056567;28;20742;-73
2021/04/24 05:01:14;;;;;;;8.30;7.13;;;;;;;-0.10;95.55;98769.81;5061890;28;20223;-74
2021/04/24 05:03:41;;;;;;;9.00;6.53;;;;;;;0.08;95.02;98765.44;5061855;28;20225;-70
2021/04/24 05:06:09;;;;;;;7.27;6.37;;;;;;;-0.06;94.91;98767.88;5060335;28;20222;-72
2021/04/24 05:08:36;;;;;;;8.37;6.87;;;;;;;0.02;95.90;98768.38;5059376;28;20738;-73
2021/04/24 05:11:04;;;;;;;11.93;7.03;;;;;;;0.18;95.01;98772.78;5055926;28;20219;-73
2021/04/24 05:13:31;;;;;;;6.47;5.80;;;;;;;0.41;93.89;98766.38;5057343;28;20559;-73
2021/04/24 05:15:58;;;;;;;7.97;6.70;;;;;;;0.45;91.90;98765.28;5061346;28;20207;-72
2021/04/24 05:18:25;;;;;;;8.47;7.03;;;;;;;0.61;93.36;98773.13;5060377;28;20210;-73
2021/04/24 05:20:52;;;;;;;9.33;8.43;;;;;;;0.58;93.08;98775.91;5061721;28;20227;-72
2021/04/24 05:23:20;;;;;;;10.60;7.30;;;;;;;0.49;92.81;98772.00;5058334;28;20985;-72
2021/04/24 05:25:47;;;;;;;9.30;7.77;;;;;;;0.80;89.32;98780.00;5058791;28;20214;-72
2021/04/24 05:28:14;;;;;;;7.13;6.43;;;;;;;0.75;91.30;98789.81;5060917;28;20207;-71
2021/04/24 05:30:41;;;;;;;8.83;7.07;;;;;;;0.99;92.43;98787.66;5060979;28;20211;-67
2021/04/24 05:33:08;;;;;;;7.10;6.50;;;;;;;1.19;92.49;98783.97;5061277;28;20591;-67
2021/04/24 05:35:35;;;;;;;8.90;6.77;;;;;;;1.14;90.37;98788.59;5060847;28;20207;-67
2021/04/24 05:38:02;;;;;;;8.00;6.60;;;;;;;1.19;90.24;98789.19;5061312;28;20211;-67
2021/04/24 05:40:30;;;;;;;8.03;6.63;;;;;;;1.55;88.78;98793.28;5057383;28;20211;-67
2021/04/24 05:42:58;;;;;;;9.93;6.77;;;;;;;1.44;88.40;98787.78;5060906;28;20235;-67
2021/04/24 05:45:25;;;;;;;11.20;7.10;;;;;;;1.51;87.12;98793.53;5060199;28;20213;-72
2021/04/24 05:47:52;;;;;;;10.57;7.03;;;;;;;1.47;86.89;98794.63;5052576;28;20211;-71
2021/04/24 05:50:21;;;;;;;8.67;7.90;;;;;;;1.63;85.51;98792.81;5054592;28;20206;-71
2021/04/24 05:52:52;;;;;;;8.30;7.50;;;;;;;1.66;83.46;98787.41;5058831;28;20230;-71
2021/04/24 05:55:19;;;;;;;8.07;7.20;;;;;;;1.76;82.51;98792.13;5060696;28;20569;-71
2021/04/24 05:57:48;;;;;;;9.30;7.40;;;;;;;1.94;83.28;98785.00;5060246;28;20203;-71
2021/04/24 06:00:16;;;;;;;9.20;6.83;;;;;;;2.03;84.86;98785.28;5059816;28;20233;-72
2021/04/24 06:02:43;;;;;;;7.37;6.80;;;;;;;2.13;81.94;98787.38;5058299;28;20358;-72
2021/04/24 06:05:12;;;;;;;8.03;7.23;;;;;;;2.39;80.27;98790.19;5056876;28;20309;-72
2021/04/24 06:07:40;;;;;;;11.77;7.13;;;;;;;2.46;78.81;98783.63;5059877;28;20202;-70
2021/04/24 06:10:10;;;;;;;8.73;6.27;;;;;;;2.35;81.39;98783.47;5058832;28;20671;-72
2021/04/24 06:12:38;;;;;;;8.17;7.33;;;;;;;2.45;80.32;98787.19;5059753;28;20227;-71
2021/04/24 06:15:07;;;;;;;8.60;7.67;;;;;;;2.61;79.44;98787.09;5059251;28;20202;-71
2021/04/24 06:17:35;;;;;;;8.70;7.93;;;;;;;2.77;78.00;98779.16;5056733;28;20210;-72
2021/04/24 06:20:02;;;;;;;7.70;6.90;;;;;;;3.00;78.00;98784.75;5058563;28;20206;-72
2021/04/24 06:22:29;;;;;;;8.37;7.40;;;;;;;3.00;78.40;98780.31;5060022;28;20226;-72
2021/04/24 06:24:57;;;;;;;7.90;7.10;;;;;;;3.08;78.95;98771.16;5057241;28;20206;-72
2021/04/24 06:27:24;;;;;;;8.10;7.30;;;;;;;3.40;78.11;98771.72;5058387;28;20600;-72
2021/04/24 06:29:51;;;;;;;7.03;6.43;;;;;;;3.67;74.02;98778.72;5057394;28;20207;-72
2021/04/24 06:32:19;;;;;;;9.70;7.60;;;;;;;3.51;75.00;98773.66;5060826;28;20533;-71
2021/04/24 06:34:47;;;;;;;7.27;6.57;;;;;;;3.79;76.17;98777.09;5059522;28;20534;-71
2021/04/24 06:37:14;;;;;;;9.37;7.63;;;;;;;3.93;74.07;98773.53;5059940;28;20507;-72
2021/04/24 06:39:41;;;;;;;9.00;6.87;;;;;;;4.10;72.96;98784.69;5059388;28;20214;-70
2021/04/24 06:42:12;;;;;;;7.33;6.57;;;;;;;4.14;72.30;98780.91;5061258;28;20616;-65
2021/04/24 06:44:39;;;;;;;7.87;7.17;;;;;;;4.29;71.65;98776.41;5060551;28;20242;-63
2021/04/24 06:47:06;;;;;;;9.03;7.07;;;;;;;4.40;71.31;98773.06;5059563;28;20210;-66
2021/04/24 06:49:34;;;;;;;9.33;7.40;;;;;;;4.52;70.70;98774.81;5057170;28;20206;-66
2021/04/24 06:52:01;;;;;;;7.67;6.87;;;;;;;4.63;69.35;98776.72;5057239;28;20233;-71
2021/04/24 06:54:28;;;;;;;8.50;7.30;;;;;;;4.76;69.67;98777.53;5060062;28;20199;-71
2021/04/24 06:56:55;;;;;;;7.70;7.00;;;;;;;4.90;70.73;98773.06;5060503;28;20293;-71
2021/04/24 06:59:22;;;;;;;11.10;7.10;;;;;;;5.11;67.68;98773.31;5055878;28;20209;-70
2021/04/24 07:01:49;;;;;;;8.73;7.13;;;;;;;5.22;66.21;98783.06;5054180;28;20231;-71
2021/04/24 07:04:16;;;;;;;7.97;6.87;;;;;;;5.33;65.90;98770.00;5060407;28;20219;-71
2021/04/24 07:06:44;;;;;;;8.10;7.13;;;;;;;5.35;67.24;98773.38;5059855;28;20199;-71
2021/04/24 07:09:11;;;;;;;7.33;6.37;;;;;;;5.82;63.31;98769.97;5059630;28;20211;-71
2021/04/24 07:11:39;;;;;;;9.27;7.17;;;;;;;5.92;63.64;98770.13;5059867;28;20276;-70
2021/04/24 07:14:06;;;;;;;8.37;7.13;;;;;;;5.87;63.89;98773.09;5061123;28;20212;-72
2021/04/24 07:16:33;;;;;;;7.33;6.73;;;;;;;6.11;64.92;98768.75;5061915;28;20206;-71
2021/04/24 07:19:00;;;;;;;8.30;7.43;;;;;;;6.10;63.63;98772.34;5063020;28;20214;-71
2021/04/24 07:21:27;;;;;;;9.43;7.17;;;;;;;6.30;62.33;98768.19;5058575;28;20709;-70
2021/04/24 07:23:55;;;;;;;8.63;7.37;;;;;;;6.57;61.60;98770.47;5061155;28;20418;-72
2021/04/24 07:26:23;;;;;;;8.73;7.43;;;;;;;6.78;59.90;98770.59;5061929;28;20203;-72
2021/04/24 07:28:50;;;;;;;9.07;7.50;;;;;;;6.97;59.46;98768.31;5061925;28;20565;-71
2021/04/24 07:31:18;;;;;;;7.23;6.63;;;;;;;6.95;59.52;98771.91;5056744;28;21092;-74
2021/04/24 07:33:45;;;;;;;8.80;7.43;;;;;;;7.11;59.06;98762.78;5059512;28;20207;-70
2021/04/24 07:36:13;;;;;;;7.90;6.77;;;;;;;7.14;58.50;98772.25;5059141;28;20211;-73
2021/04/24 07:38:40;;;;;;;10.60;7.57;;;;;;;7.41;58.66;98752.53;5060368;28;20207;-73
2021/04/24 07:41:08;;;;;;;6.60;6.03;;;;;;;7.52;56.55;98755.09;5060359;28;20328;-73
2021/04/24 07:43:36;;;;;;;10.17;7.03;;;;;;;7.46;57.29;98750.34;5061698;28;20242;-72
2021/04/24 07:46:03;;;;;;;7.47;6.93;;;;;;;7.73;56.71;98751.69;5059802;28;20260;-72
2021/04/24 07:48:30;;;;;;;7.50;6.50;;;;;;;7.75;56.06;98749.75;5059357;28;20599;-73
2021/04/24 07:50:57;;;;;;;8.67;6.80;;;;;;;7.92;55.87;98757.09;5060177;28;20404;-73
2021/04/24 07:53:24;;;;;;;10.67;6.40;;;;;;;8.32;54.78;98746.75;5062250;28;20207;-73
2021/04/24 07:55:51;;;;;;;10.63;6.57;;;;;;;8.55;54.49;98755.41;5061950;28;20698;-73
2021/04/24 07:58:19;;;;;;;7.30;6.60;;;;;;;8.63;52.07;98745.00;5062834;28;20203;-73
2021/04/24 08:00:46;;;;;;;8.40;6.83;;;;;;;8.88;50.85;98752.59;5060988;28;20203;-73
2021/04/24 08:03:13;;;;;;;8.00;7.20;;;;;;;8.87;51.47;98749.09;5063087;28;20239;-73
2021/04/24 08:05:40;;;;;;;7.03;6.43;;;;;;;9.01;51.39;98753.19;5061902;28;20222;-73
2021/04/24 08:08:07;;;;;;;7.70;6.33;;;;;;;9.09;52.27;98745.44;5064115;28;20209;-74
2021/04/24 08:10:34;;;;;;;7.70;6.73;;;;;;;9.32;50.66;98757.59;5060628;28;20214;-69
2021/04/24 08:13:03;;;;;;;9.13;7.23;;;;;;;9.53;49.47;98755.63;5056495;28;20568;-73
2021/04/24 08:15:31;;;;;;;9.40;7.83;;;;;;;9.71;48.68;98747.03;5060091;28;20206;-75
2021/04/24 08:17:59;;;;;;;6.97;6.27;;;;;;;9.69;48.02;98747.16;5061554;28;20210;-72
2021/04/24 08:20:26;;;;;;;8.23;7.23;;;;;;;9.97;48.51;98749.06;5062678;28;20215;-72
2021/04/24 08:22:53;;;;;;;7.33;6.63;;;;;;;9.95;48.94;98740.44;5060694;28;20231;-71
2021/04/24 08:25:20;;;;;;;8.77;6.73;;;;;;;10.38;47.54;98744.38;5059989;28;20210;-73
2021/04/24 08:27:49;;;;;;;8.70;7.57;;;;;;;10.56;47.23;98743.66;5058413;28;20521;-70
2021/04/24 08:30:18;;;;;;;7.77;7.10;;;;;;;10.55;49.67;98734.84;5062423;28;20221;-72
2021/04/24 08:32:47;;;;;;;8.17;7.47;;;;;;;11.07;47.80;98735.31;5062166;28;20623;-69
2021/04/24 08:35:15;;;;;;;7.90;6.87;;;;;;;11.35;46.88;98722.00;5062877;28;20694;-70
2021/04/24 08:37:44;;;;;;;8.13;5.90;;;;;;;11.49;44.01;98724.13;5059542;28;20293;-71
2021/04/24 08:40:13;;;;;;;7.07;6.37;;;;;;;11.42;43.32;98721.25;5059569;28;20202;-70
2021/04/24 08:42:40;;;;;;;7.20;5.93;;;;;;;11.18;43.79;98731.63;5057594;28;20230;-70
2021/04/24 08:45:15;;;;;;;7.53;6.83;;;;;;;11.09;44.84;98726.22;5062455;28;20583;-71
2021/04/24 08:47:45;;;;;;;7.53;6.60;;;;;;;11.41;45.20;98721.41;5060494;28;20284;-74
2021/04/24 08:50:18;;;;;;;6.73;6.10;;;;;;;11.75;43.46;98718.03;5060208;28;20219;-70
2021/04/24 08:52:45;;;;;;;7.73;6.70;;;;;;;11.70;43.16;98725.66;5056581;28;20223;-71
2021/04/24 08:55:16;;;;;;;47.30;10.93;;;;;;;11.77;43.19;98715.25;5064214;28;20583;-68
2021/04/24 08:57:44;;;;;;;7.37;5.83;;;;;;;11.75;42.43;98718.03;5060627;28;20282;-69
2021/04/24 09:00:13;;;;;;;9.40;5.87;;;;;;;11.83;41.27;98717.28;5063223;28;20481;-68
2021/04/24 09:02:42;;;;;;;5.93;4.90;;;;;;;11.96;40.40;98715.03;5059123;28;20227;-68
2021/04/24 09:05:13;;;;;;;7.57;5.50;;;;;;;12.20;41.02;98715.41;5060466;28;20338;-69
2021/04/24 09:07:40;;;;;;;5.97;5.40;;;;;;;12.36;40.34;98714.66;5062149;28;20207;-67
2021/04/24 09:10:14;;;;;;;5.73;5.13;;;;;;;12.25;39.75;98713.09;5062259;28;20202;-69
2021/04/24 09:12:43;;;;;;;8.23;5.13;;;;;;;12.38;38.98;98710.00;5061271;28;20225;-65
2021/04/24 09:15:11;;;;;;;6.23;5.13;;;;;;;12.34;37.08;98701.53;5061013;28;20203;-66
2021/04/24 09:17:58;;;;;;;5.53;5.03;;;;;;;12.10;39.05;98711.03;5059273;28;20206;-66
2021/04/24 09:20:28;;;;;;;5.33;4.80;;;;;;;12.17;39.00;98703.28;5060219;28;20203;-70
2021/04/24 09:23:02;;;;;;;6.87;5.10;;;;;;;12.49;39.62;98703.59;5060960;28;20436;-70
2021/04/24 09:25:34;;;;;;;5.77;5.00;;;;;;;12.65;38.73;98702.84;5059194;28;20210;-69
2021/04/24 09:28:01;;;;;;;5.10;4.60;;;;;;;12.68;36.37;98702.53;5061446;28;20214;-69
2021/04/24 09:30:30;;;;;;;5.73;4.70;;;;;;;13.15;37.00;98699.31;5059973;28;20215;-69
2021/04/24 09:33:03;;;;;;;5.40;4.47;;;;;;;13.25;35.98;98688.53;5061101;28;21265;-70
2021/04/24 09:35:54;;;;;;;5.07;4.50;;;;;;;13.40;35.02;98694.06;5057272;28;20203;-70
2021/04/24 09:38:24;;;;;;;6.33;4.63;;;;;;;13.43;36.53;98684.91;5059100;28;20203;-70
2021/04/24 09:41:16;;;;;;;7.43;4.00;;;;;;;13.39;35.85;98684.41;5060366;28;20219;-70
2021/04/24 09:43:48;;;;;;;6.23;4.40;;;;;;;13.52;34.46;98680.44;5047708;28;20218;-69
2021/04/24 09:46:15;;;;;;;4.60;4.20;;;;;;;13.37;34.89;98675.75;5059476;28;20211;-69
2021/04/24 09:48:42;;;;;;;6.57;4.10;;;;;;;13.29;33.54;98681.88;5058571;28;20225;-70
2021/04/24 09:51:16;;;;;;;6.97;4.20;;;;;;;13.47;33.79;98678.28;5060076;28;20260;-69
2021/04/24 09:53:53;;;;;;;5.87;4.20;;;;;;;13.35;33.27;98676.91;5056536;28;20200;-72
2021/04/24 09:56:20;;;;;;;6.87;4.73;;;;;;;13.30;32.69;98669.44;5058096;28;20205;-71
2021/04/24 09:58:47;;;;;;;4.70;4.37;;;;;;;13.26;31.14;98668.91;5057185;28;20210;-71
2021/04/24 10:01:24;;;;;;;5.00;4.07;;;;;;;13.15;33.01;98666.59;5060527;28;20226;-72
2021/04/24 10:03:53;;;;;;;4.87;4.43;;;;;;;13.12;33.47;98666.91;5055251;28;20230;-70
2021/04/24 10:06:42;;;;;;;4.97;3.67;;;;;;;13.62;32.84;98662.44;5055421;28;20290;-71
2021/04/24 10:09:15;;;;;;;5.67;4.20;;;;;;;13.63;33.80;98650.81;5059356;28;20203;-72
2021/04/24 10:11:44;;;;;;;5.20;4.60;;;;;;;13.61;32.79;98644.81;5056249;28;20603;-72
2021/04/24 10:14:11;;;;;;;5.00;4.53;;;;;;;13.46;32.94;98652.66;5053619;28;20731;-72
2021/04/24 10:16:41;;;;;;;6.40;4.90;;;;;;;13.35;32.86;98648.47;5058762;28;20203;-71
2021/04/24 10:19:10;;;;;;;4.73;4.33;;;;;;;13.39;32.70;98649.78;5055196;28;20214;-70
2021/04/24 10:21:37;;;;;;;6.00;4.30;;;;;;;13.75;31.99;98649.47;5057782;28;20242;-72
2021/04/24 10:24:08;;;;;;;4.50;4.10;;;;;;;13.59;32.89;98644.16;5057715;28;20685;-72
2021/04/24 10:26:36;;;;;;;6.80;5.00;;;;;;;13.63;32.46;98639.34;5055317;28;20203;-71
2021/04/24 10:29:04;;;;;;;6.17;5.30;;;;;;;13.52;32.62;98644.00;5055779;28;20199;-72
2021/04/24 10:31:32;;;;;;;5.20;4.70;;;;;;;13.88;32.15;98651.63;5058475;28;20231;-72
2021/04/24 10:34:00;;;;;;;9.23;4.90;;;;;;;13.99;33.14;98639.75;5055774;28;20287;-72
2021/04/24 10:36:27;;;;;;;5.93;5.40;;;;;;;14.10;31.74;98635.09;5059438;28;20618;-72
2021/04/24 10:38:56;;;;;;;6.07;4.93;;;;;;;14.50;32.08;98629.75;5060197;28;20211;-70
2021/04/24 10:41:30;;;;;;;7.80;5.10;;;;;;;14.83;31.01;98638.47;5057854;28;20476;-72
2021/04/24 10:43:59;;;;;;;7.20;4.93;;;;;;;15.51;29.47;98627.16;5060683;28;20254;-71
2021/04/24 10:46:36;;;;;;;5.93;4.70;;;;;;;15.28;29.86;98635.19;5058539;28;20202;-71
2021/04/24 10:49:23;;;;;;;5.00;4.50;;;;;;;15.39;30.02;98634.75;5058911;28;20272;-71
2021/04/24 10:51:55;;;;;;;6.30;4.83;;;;;;;16.29;28.71;98634.06;5059166;28;20714;-71
2021/04/24 10:54:23;;;;;;;7.13;4.33;;;;;;;16.33;28.07;98625.50;5064201;28;20686;-72
2021/04/24 10:56:51;;;;;;;5.50;4.83;;;;;;;17.03;27.16;98622.41;5064332;28;20203;-71
2021/04/24 10:59:19;;;;;;;7.60;5.30;;;;;;;16.47;28.84;98623.00;5064490;28;20520;-72
2021/04/24 11:02:03;;;;;;;5.45;4.60;;;;;;;16.43;27.42;98619.03;5063314;28;20881;-72
2021/04/24 11:04:47;;;;;;;4.90;4.47;;;;;;;17.20;27.97;98614.13;5058478;28;20226;-72
2021/04/24 11:07:19;;;;;;;9.17;6.90;;;;;;;17.88;25.91;98616.31;5063222;28;20217;-72
2021/04/24 11:10:24;;;;;;;7.53;6.73;;;;;;;16.49;27.79;98613.78;5062832;28;20207;-71
2021/04/24 11:12:52;;;;;;;8.63;5.07;;;;;;;16.45;27.78;98608.97;5057101;28;20223;-72
2021/04/24 11:15:22;;;;;;;5.57;5.03;;;;;;;15.93;28.71;98605.41;5065164;28;20245;-72
2021/04/24 11:17:50;;;;;;;5.80;5.30;;;;;;;15.71;28.57;98603.41;5062772;28;20207;-71
2021/04/24 11:20:47;;;;;;;5.77;5.27;;;;;;;16.12;27.91;98596.84;5060737;28;20218;-73
2021/04/24 11:23:43;;;;;;;6.30;4.60;;;;;;;16.71;27.54;98599.59;5055034;28;20361;-73
2021/04/24 11:26:14;;;;;;;5.60;4.43;;;;;;;15.53;27.41;98592.22;5056497;28;20678;-73
2021/04/24 11:29:06;;;;;;;6.13;4.30;;;;;;;15.58;28.67;98579.19;5061502;28;20349;-72
2021/04/24 11:32:10;;;;;;;5.63;4.97;;;;;;;15.89;28.63;98583.53;5059640;28;20246;-72
2021/04/24 11:34:42;;;;;;;5.50;4.77;;;;;;;16.35;28.72;98585.19;5059259;28;20205;-72
2021/04/24 11:37:31;;;;;;;5.23;4.73;;;;;;;16.94;27.73;98580.69;5054931;28;20615;-71
2021/04/24 11:40:31;;;;;;;5.77;4.90;;;;;;;16.96;27.15;98573.31;5061303;28;20210;-73
2021/04/24 11:43:21;;;;;;;5.60;4.97;;;;;;;16.14;28.10;98580.59;5060737;28;20211;-71
2021/04/24 11:46:02;;;;;;;6.40;5.03;;;;;;;16.86;29.40;98572.78;5057588;28;20203;-67